Time;durP1;ratioP1;P1;durP2;ratioP2;P2;SDS_P1;SDS_P2;PMS_P1;PMS_P2;Temp;Humidity;BMP_temperature;BMP_pressure;BME280_temperature;BME280_humidity;BME280_pressure;Samples;Min_cycle;Max_cycle;Signal;HPM_P1;HPM_P2
2023/12/05 00:00:12;;;;;;;;;;;2.90;99.90;;;;;;2616464;54;19942;-68
2023/12/05 00:02:45;;;;;;;;;;;3.00;99.90;;;;;;2615626;46;20061;-69
2023/12/05 00:05:14;;;;;;;;;;;3.00;99.90;;;;;;2612737;54;20034;-69
2023/12/05 00:07:45;;;;;;;;;;;2.90;99.90;;;;;;2615350;54;19946;-68
2023/12/05 00:10:15;;;;;;;;;;;3.60;99.90;;;;;;2616296;54;20465;-69
2023/12/05 00:12:42;;;;;;;;;;;2.70;99.90;;;;;;2612277;54;19946;-69
2023/12/05 00:15:12;;;;;;;;;;;2.70;99.90;;;;;;2615844;54;19950;-69
2023/12/05 00:17:44;;;;;;;;;;;2.70;99.90;;;;;;2605195;51;20788;-81
2023/12/05 00:20:14;;;;;;;;;;;2.70;99.90;;;;;;2629729;54;19946;-79
2023/12/05 00:22:44;;;;;;;;;;;2.80;99.90;;;;;;2629584;46;19958;-79
2023/12/05 00:25:14;;;;;;;;;;;2.80;99.90;;;;;;2630324;54;19950;-80
2023/12/05 00:27:44;;;;;;;;;;;2.80;99.90;;;;;;2628751;46;19942;-79
2023/12/05 00:30:15;;;;;;;;;;;4.10;99.90;;;;;;2629794;54;19949;-79
2023/12/05 00:32:47;;;;;;;;;;;2.80;99.90;;;;;;2629330;46;19953;-80
2023/12/05 00:35:19;;;;;;;;;;;2.90;99.90;;;;;;2629630;54;19949;-80
2023/12/05 00:37:49;;;;;;;;;;;2.90;99.90;;;;;;2630197;47;19950;-79
2023/12/05 00:40:19;;;;;;;;;;;2.90;99.90;;;;;;2628854;54;19949;-79
2023/12/05 00:42:49;;;;;;;;;;;2.90;99.90;;;;;;2629053;47;19972;-80
2023/12/05 00:45:20;;;;;;;;;;;3.70;99.90;;;;;;2629502;47;19958;-79
2023/12/05 00:47:53;;;;;;;;;;;3.90;99.90;;;;;;2629532;54;19962;-80
2023/12/05 00:50:23;;;;;;;;;;;3.00;99.90;;;;;;2629050;47;19938;-80
2023/12/05 00:53:05;;;;;;;;;;;3.00;99.90;;;;;;2629767;46;19968;-81
2023/12/05 00:55:37;;;;;;;;;;;3.00;99.90;;;;;;2629404;47;19946;-80
2023/12/05 00:58:07;;;;;;;;;;;2.90;99.90;;;;;;2629832;54;19961;-80
2023/12/05 01:00:36;;;;;;;;;;;2.90;99.90;;;;;;2629559;47;19927;-80
2023/12/05 01:03:09;;;;;;;;;;;4.10;99.90;;;;;;2629446;46;19931;-81
2023/12/05 01:05:39;;;;;;;;;;;3.10;99.90;;;;;;2628224;47;20006;-81
2023/12/05 01:08:09;;;;;;;;;;;2.90;99.90;;;;;;2628173;46;20010;-80
2023/12/05 01:10:39;;;;;;;;;;;3.40;99.90;;;;;;2628332;54;19949;-79
2023/12/05 01:13:09;;;;;;;;;;;2.90;99.90;;;;;;2628879;47;20492;-80
2023/12/05 01:15:38;;;;;;;;;;;3.90;99.90;;;;;;2632367;39;20482;-81
2023/12/05 01:18:11;;;;;;;;;;;3.40;99.90;;;;;;2628763;47;19942;-80
2023/12/05 01:20:41;;;;;;;;;;;3.80;99.90;;;;;;2627716;54;19943;-81
2023/12/05 01:23:11;;;;;;;;;;;3.00;99.90;;;;;;2628563;47;19949;-80
2023/12/05 01:25:41;;;;;;;;;;;4.80;99.90;;;;;;2628879;47;19942;-80
2023/12/05 01:28:10;;;;;;;;;;;3.00;99.90;;;;;;2628203;47;19939;-81
2023/12/05 01:30:41;;;;;;;;;;;3.10;99.90;;;;;;2628141;47;19938;-79
2023/12/05 01:33:14;;;;;;;;;;;3.20;99.90;;;;;;2628567;54;19942;-80
2023/12/05 01:35:44;;;;;;;;;;;4.40;99.90;;;;;;2628574;47;19969;-79
2023/12/05 01:38:13;;;;;;;;;;;4.30;99.90;;;;;;2629938;54;19956;-80
2023/12/05 01:40:43;;;;;;;;;;;3.10;99.90;;;;;;2628761;46;19939;-81
2023/12/05 01:43:13;;;;;;;;;;;3.20;99.90;;;;;;2628322;47;19938;-79
2023/12/05 01:45:43;;;;;;;;;;;3.40;99.90;;;;;;2627724;54;19963;-79
2023/12/05 01:48:16;;;;;;;;;;;3.40;99.90;;;;;;2627075;47;19929;-79
2023/12/05 01:50:46;;;;;;;;;;;3.50;99.90;;;;;;2627533;54;19931;-79
2023/12/05 01:53:17;;;;;;;;;;;3.60;99.90;;;;;;2627382;54;19939;-80
2023/12/05 01:55:47;;;;;;;;;;;3.10;99.90;;;;;;2626973;54;19947;-79
2023/12/05 01:58:18;;;;;;;;;;;3.10;99.90;;;;;;2630217;39;20464;-79
2023/12/05 02:00:47;;;;;;;;;;;3.20;99.90;;;;;;2627906;46;19950;-79
2023/12/05 02:03:20;;;;;;;;;;;3.10;99.90;;;;;;2628456;46;19946;-79
2023/12/05 02:05:51;;;;;;;;;;;3.10;99.90;;;;;;2627972;47;19984;-78
2023/12/05 02:08:22;;;;;;;;;;;3.50;99.90;;;;;;2627919;47;19931;-80
2023/12/05 02:10:52;;;;;;;;;;;3.10;99.90;;;;;;2627748;47;19997;-81
2023/12/05 02:13:22;;;;;;;;;;;3.10;99.90;;;;;;2627900;46;19951;-79
2023/12/05 02:15:55;;;;;;;;;;;3.20;99.90;;;;;;2627175;47;19923;-80
2023/12/05 02:18:30;;;;;;;;;;;3.20;99.90;;;;;;2627576;54;19984;-79
2023/12/05 02:21:06;;;;;;;;;;;3.20;99.90;;;;;;2628147;54;19943;-80
2023/12/05 02:23:47;;;;;;;;;;;4.30;99.90;;;;;;2628836;54;19934;-81
2023/12/05 02:26:23;;;;;;;;;;;3.70;99.90;;;;;;2628662;47;19942;-78
2023/12/05 02:28:56;;;;;;;;;;;3.30;99.90;;;;;;2628258;46;19946;-78
2023/12/05 04:59:54;;;;;;;;;;;3.30;99.90;;;;;;2610764;47;20190;-82
2023/12/05 05:02:24;;;;;;;;;;;3.60;99.90;;;;;;2627518;47;19939;-79
2023/12/05 05:04:54;;;;;;;;;;;3.60;99.90;;;;;;2626361;46;19947;-78
2023/12/05 05:07:24;;;;;;;;;;;3.70;99.90;;;;;;2628653;47;19971;-77
2023/12/05 05:09:54;;;;;;;;;;;3.70;99.90;;;;;;2629842;47;19927;-80
2023/12/05 05:12:24;;;;;;;;;;;3.70;99.90;;;;;;2624356;54;20030;-69
2023/12/05 05:14:56;;;;;;;;;;;3.70;99.90;;;;;;2614592;47;19950;-67
2023/12/05 05:17:26;;;;;;;;;;;3.70;99.90;;;;;;2615106;39;20345;-68
2023/12/05 05:19:56;;;;;;;;;;;3.60;99.90;;;;;;2613313;49;19970;-67
2023/12/05 05:22:26;;;;;;;;;;;3.70;99.90;;;;;;2616646;54;19946;-67
2023/12/05 05:24:56;;;;;;;;;;;3.70;99.90;;;;;;2614792;47;19947;-71
2023/12/05 05:27:26;;;;;;;;;;;3.70;99.90;;;;;;2613114;47;20457;-68
2023/12/05 05:29:58;;;;;;;;;;;3.70;99.90;;;;;;2612813;54;19951;-68
2023/12/05 05:32:28;;;;;;;;;;;3.60;99.90;;;;;;2614151;47;19958;-69
2023/12/05 05:34:57;;;;;;;;;;;3.60;99.90;;;;;;2614562;50;19951;-68
2023/12/05 05:37:27;;;;;;;;;;;3.60;99.90;;;;;;2616312;54;19957;-69
2023/12/05 05:39:57;;;;;;;;;;;3.60;99.90;;;;;;2613853;54;19935;-69
2023/12/05 05:42:27;;;;;;;;;;;3.60;99.90;;;;;;2612606;47;20145;-69
2023/12/05 05:45:00;;;;;;;;;;;3.60;99.90;;;;;;2613283;47;20058;-69
2023/12/05 05:47:31;;;;;;;;;;;3.60;99.90;;;;;;2615288;54;19981;-69
2023/12/05 05:50:02;;;;;;;;;;;3.60;99.90;;;;;;2615119;54;19938;-68
2023/12/05 05:52:32;;;;;;;;;;;3.60;99.90;;;;;;2615134;54;19957;-69
2023/12/05 05:55:01;;;;;;;;;;;3.60;99.90;;;;;;2614027;47;19938;-68
2023/12/05 05:57:33;;;;;;;;;;;3.60;99.90;;;;;;2615370;54;20062;-69
2023/12/05 06:00:05;;;;;;;;;;;3.60;99.90;;;;;;2614576;54;19966;-68
2023/12/05 06:02:35;;;;;;;;;;;3.70;99.90;;;;;;2613715;39;20376;-68
2023/12/05 06:05:05;;;;;;;;;;;3.60;99.90;;;;;;2614577;54;19969;-69
2023/12/05 06:07:35;;;;;;;;;;;3.70;99.90;;;;;;2617142;54;20050;-69
2023/12/05 06:10:05;;;;;;;;;;;3.70;99.90;;;;;;2616555;47;20042;-68
2023/12/05 06:12:35;;;;;;;;;;;3.60;99.90;;;;;;2615895;54;19950;-69
2023/12/05 06:15:08;;;;;;;;;;;3.70;99.90;;;;;;2615531;54;19950;-69
2023/12/05 06:17:37;;;;;;;;;;;3.70;99.90;;;;;;2616207;50;19953;-68
2023/12/05 06:20:08;;;;;;;;;;;3.70;99.90;;;;;;2615825;47;19970;-70
2023/12/05 06:22:38;;;;;;;;;;;3.70;99.90;;;;;;2616534;47;20042;-67
2023/12/05 06:25:08;;;;;;;;;;;3.70;99.90;;;;;;2616755;54;19950;-69
2023/12/05 06:27:38;;;;;;;;;;;3.60;99.90;;;;;;2616363;54;19991;-69
2023/12/05 06:30:10;;;;;;;;;;;3.70;99.90;;;;;;2616769;47;19961;-69
2023/12/05 06:32:52;;;;;;;;;;;3.60;99.90;;;;;;2616781;50;20045;-68
2023/12/05 06:35:22;;;;;;;;;;;3.70;99.90;;;;;;2615350;54;19947;-69
2023/12/05 06:37:52;;;;;;;;;;;3.70;99.90;;;;;;2616815;47;19945;-69
2023/12/05 06:40:22;;;;;;;;;;;3.70;99.90;;;;;;2616750;54;19943;-69
2023/12/05 06:42:51;;;;;;;;;;;3.70;99.90;;;;;;2616883;54;19953;-69
2023/12/05 06:45:24;;;;;;;;;;;3.70;99.90;;;;;;2616249;54;19946;-69
2023/12/05 06:47:53;;;;;;;;;;;3.70;99.90;;;;;;2616971;47;20055;-70
2023/12/05 06:50:23;;;;;;;;;;;3.80;99.90;;;;;;2615382;54;20027;-69
2023/12/05 06:52:57;;;;;;;;;;;3.80;99.90;;;;;;2617158;54;19981;-69
2023/12/05 06:55:27;;;;;;;;;;;3.80;99.90;;;;;;2617124;47;19978;-68
2023/12/05 06:57:56;;;;;;;;;;;3.80;99.90;;;;;;2616567;39;20393;-68
2023/12/05 07:00:29;;;;;;;;;;;3.70;99.90;;;;;;2617140;46;19935;-69
2023/12/05 07:02:58;;;;;;;;;;;3.80;99.90;;;;;;2615361;47;19946;-68
2023/12/05 07:05:28;;;;;;;;;;;3.70;99.90;;;;;;2615765;47;19938;-69
2023/12/05 07:08:00;;;;;;;;;;;3.70;99.90;;;;;;2615790;47;19939;-68
2023/12/05 07:10:31;;;;;;;;;;;3.70;99.90;;;;;;2616186;54;19969;-69
2023/12/05 07:13:02;;;;;;;;;;;3.70;99.90;;;;;;2616422;46;19976;-70
2023/12/05 07:15:34;;;;;;;;;;;3.60;99.90;;;;;;2618163;47;20441;-71
2023/12/05 07:18:04;;;;;;;;;;;3.60;99.90;;;;;;2617442;47;19954;-73
2023/12/05 07:20:33;;;;;;;;;;;3.50;99.90;;;;;;2617454;47;19939;-71
2023/12/05 07:23:03;;;;;;;;;;;3.50;99.90;;;;;;2617655;51;19947;-70
2023/12/05 07:25:33;;;;;;;;;;;3.50;99.90;;;;;;2618093;47;20558;-70
2023/12/05 07:28:02;;;;;;;;;;;3.60;99.90;;;;;;2615592;47;20454;-71
2023/12/05 07:30:35;;;;;;;;;;;3.60;99.90;;;;;;2617268;47;20368;-71
2023/12/05 07:33:04;;;;;;;;;;;3.70;99.90;;;;;;2617151;31;20437;-69
2023/12/05 07:35:34;;;;;;;;;;;3.70;99.90;;;;;;2616235;47;19947;-71
2023/12/05 07:38:04;;;;;;;;;;;3.80;99.90;;;;;;2616819;47;19953;-69
2023/12/05 07:43:52;;;;;;;;;;;3.80;99.90;;;;;;2616106;50;19973;-69
2023/12/05 07:46:24;;;;;;;;;;;3.80;99.90;;;;;;2616756;54;19957;-70
2023/12/05 07:48:54;;;;;;;;;;;3.80;99.90;;;;;;2616006;54;20453;-70
2023/12/05 07:51:24;;;;;;;;;;;3.80;99.90;;;;;;2614473;51;19939;-71
2023/12/05 07:53:55;;;;;;;;;;;3.90;99.90;;;;;;2616231;47;19950;-71
2023/12/05 07:56:24;;;;;;;;;;;3.90;99.90;;;;;;2616605;54;19954;-71
2023/12/05 07:58:54;;;;;;;;;;;3.90;99.90;;;;;;2616292;54;20063;-71
2023/12/05 08:01:26;;;;;;;;;;;3.90;99.90;;;;;;2616517;47;20457;-71
2023/12/05 08:03:57;;;;;;;;;;;3.90;99.90;;;;;;2616556;47;19943;-70
2023/12/05 08:06:27;;;;;;;;;;;3.90;99.90;;;;;;2615725;39;20457;-70
2023/12/05 08:08:57;;;;;;;;;;;3.90;99.90;;;;;;2617066;39;20110;-70
2023/12/05 08:11:26;;;;;;;;;;;4.00;99.90;;;;;;2615617;47;19938;-70
2023/12/05 08:13:56;;;;;;;;;;;4.00;99.90;;;;;;2616799;47;19939;-70
2023/12/05 08:16:29;;;;;;;;;;;4.00;99.90;;;;;;2616658;54;20448;-70
2023/12/05 08:18:58;;;;;;;;;;;4.00;99.90;;;;;;2616075;54;20030;-68
2023/12/05 08:21:28;;;;;;;;;;;4.00;99.90;;;;;;2615885;47;19994;-69
2023/12/05 08:23:58;;;;;;;;;;;4.00;99.90;;;;;;2616990;49;20059;-69
2023/12/05 08:26:28;;;;;;;;;;;4.00;99.90;;;;;;2616142;54;19958;-70
2023/12/05 08:28:58;;;;;;;;;;;4.00;99.90;;;;;;2616837;54;19977;-70
2023/12/05 08:31:30;;;;;;;;;;;4.00;99.90;;;;;;2616365;47;19942;-70
2023/12/05 08:34:00;;;;;;;;;;;4.00;99.90;;;;;;2616109;54;19950;-70
2023/12/05 08:36:29;;;;;;;;;;;4.00;99.90;;;;;;2615655;50;19943;-70
2023/12/05 08:38:59;;;;;;;;;;;4.00;99.90;;;;;;2619105;54;19953;-70
2023/12/05 08:41:29;;;;;;;;;;;4.10;99.90;;;;;;2619352;47;20005;-69
2023/12/05 08:43:58;;;;;;;;;;;4.10;99.90;;;;;;2615834;54;20449;-70
2023/12/05 08:46:31;;;;;;;;;;;4.10;99.90;;;;;;2612634;54;19953;-69
2023/12/05 08:49:01;;;;;;;;;;;4.10;99.90;;;;;;2595429;47;19934;-70
2023/12/05 08:51:30;;;;;;;;;;;4.10;99.90;;;;;;2598791;39;20377;-70
2023/12/05 08:54:00;;;;;;;;;;;4.20;99.90;;;;;;2598560;47;20001;-70
2023/12/05 08:56:30;;;;;;;;;;;4.20;99.90;;;;;;2599586;47;20062;-70
2023/12/05 08:59:00;;;;;;;;;;;4.20;99.90;;;;;;2599091;54;20034;-71
2023/12/05 09:01:32;;;;;;;;;;;4.20;99.90;;;;;;2599333;46;19987;-71
2023/12/05 09:04:02;;;;;;;;;;;4.30;99.90;;;;;;2598708;54;19973;-71
2023/12/05 09:06:32;;;;;;;;;;;4.30;99.90;;;;;;2599080;47;20714;-70
2023/12/05 09:09:03;;;;;;;;;;;4.30;99.90;;;;;;2599067;51;19951;-71
2023/12/05 09:11:33;;;;;;;;;;;4.30;99.90;;;;;;2598344;54;19973;-71
2023/12/05 09:14:02;;;;;;;;;;;4.30;99.90;;;;;;2598794;54;19934;-71
2023/12/05 09:16:35;;;;;;;;;;;3.90;99.90;;;;;;2606081;54;19947;-71
2023/12/05 09:19:04;;;;;;;;;;;4.30;99.90;;;;;;2616045;47;19947;-70
2023/12/05 09:21:34;;;;;;;;;;;4.30;99.90;;;;;;2616595;47;19946;-70
2023/12/05 09:24:04;;;;;;;;;;;4.30;99.90;;;;;;2617495;39;20605;-72
2023/12/05 09:26:33;;;;;;;;;;;4.30;99.90;;;;;;2615681;47;19950;-69
2023/12/05 09:29:03;;;;;;;;;;;4.20;99.90;;;;;;2616184;47;20049;-70
2023/12/05 09:31:36;;;;;;;;;;;4.20;99.90;;;;;;2616886;54;19946;-71
2023/12/05 09:34:05;;;;;;;;;;;4.10;99.90;;;;;;2615667;54;19943;-70
2023/12/05 09:36:35;;;;;;;;;;;4.20;99.90;;;;;;2616482;47;20421;-69
2023/12/05 09:39:05;;;;;;;;;;;4.30;99.90;;;;;;2616170;54;20457;-68
2023/12/05 09:41:39;;;;;;;;;;;4.30;99.90;;;;;;2616040;54;19939;-68
2023/12/05 09:44:10;;;;;;;;;;;4.40;99.90;;;;;;2616577;39;20345;-69
2023/12/05 09:46:44;;;;;;;;;;;4.40;99.90;;;;;;2616960;47;19946;-69
2023/12/05 09:49:18;;;;;;;;;;;4.50;99.90;;;;;;2615631;54;19946;-70
2023/12/05 09:51:48;;;;;;;;;;;4.50;99.90;;;;;;2616907;47;19946;-69
2023/12/05 09:54:18;;;;;;;;;;;4.60;99.90;;;;;;2616441;47;20441;-70
2023/12/05 09:56:48;;;;;;;;;;;4.60;99.90;;;;;;2615877;54;19946;-69
2023/12/05 09:59:18;;;;;;;;;;;4.50;99.90;;;;;;2615984;54;19946;-69
2023/12/05 10:01:50;;;;;;;;;;;4.60;99.90;;;;;;2616366;54;19942;-68
2023/12/05 10:04:21;;;;;;;;;;;4.60;99.90;;;;;;2615340;54;19938;-69
2023/12/05 10:06:51;;;;;;;;;;;4.60;99.90;;;;;;2616859;54;20074;-69
2023/12/05 10:09:23;;;;;;;;;;;4.60;99.90;;;;;;2616861;39;20013;-70
2023/12/05 10:11:53;;;;;;;;;;;4.60;99.90;;;;;;2616666;54;20433;-69
2023/12/05 10:14:23;;;;;;;;;;;4.70;99.90;;;;;;2615468;54;19939;-70
2023/12/05 10:16:55;;;;;;;;;;;4.60;99.90;;;;;;2616974;50;19950;-69
2023/12/05 10:19:25;;;;;;;;;;;4.60;99.90;;;;;;2615498;54;19939;-69
2023/12/05 10:21:56;;;;;;;;;;;4.70;99.90;;;;;;2615871;47;19978;-69
2023/12/05 10:24:26;;;;;;;;;;;4.70;99.90;;;;;;2616200;54;19978;-69
2023/12/05 10:26:57;;;;;;;;;;;4.70;99.90;;;;;;2616770;47;19969;-69
2023/12/05 10:29:38;;;;;;;;;;;4.70;99.90;;;;;;2615789;47;19946;-69
2023/12/05 10:32:11;;;;;;;;;;;4.80;99.90;;;;;;2616402;54;19949;-69
2023/12/05 10:34:48;;;;;;;;;;;4.80;99.90;;;;;;2617278;54;19939;-69
2023/12/05 10:37:21;;;;;;;;;;;4.80;99.90;;;;;;2617119;47;19954;-69
2023/12/05 10:39:51;;;;;;;;;;;4.90;99.90;;;;;;2616917;54;20010;-69
2023/12/05 10:42:21;;;;;;;;;;;4.90;99.90;;;;;;2615844;47;20024;-69
2023/12/05 10:44:51;;;;;;;;;;;5.00;99.90;;;;;;2614818;47;19947;-70
2023/12/05 10:47:30;;;;;;;;;;;5.00;99.90;;;;;;2616688;39;20345;-70
2023/12/05 10:50:02;;;;;;;;;;;5.00;99.90;;;;;;2616863;39;20342;-70
2023/12/05 10:52:34;;;;;;;;;;;5.00;99.90;;;;;;2616064;47;19950;-71
2023/12/05 10:55:03;;;;;;;;;;;5.10;99.90;;;;;;2617171;47;19951;-71
2023/12/05 10:57:35;;;;;;;;;;;5.10;99.90;;;;;;2615554;54;19997;-70
2023/12/05 11:00:08;;;;;;;;;;;5.10;99.90;;;;;;2616510;47;19949;-70
2023/12/05 11:02:40;;;;;;;;;;;5.10;99.90;;;;;;2616411;47;19974;-71
2023/12/05 11:05:11;;;;;;;;;;;5.10;99.90;;;;;;2615938;54;19989;-73
2023/12/05 11:07:40;;;;;;;;;;;5.20;99.90;;;;;;2615740;47;19968;-70
2023/12/05 11:10:11;;;;;;;;;;;5.10;99.90;;;;;;2616126;54;20496;-72
2023/12/05 11:12:42;;;;;;;;;;;5.20;99.90;;;;;;2615962;47;20018;-71
2023/12/05 11:15:13;;;;;;;;;;;5.20;99.90;;;;;;2616947;49;19969;-72
2023/12/05 11:17:47;;;;;;;;;;;5.20;99.90;;;;;;2614323;54;19969;-71
2023/12/05 11:20:25;;;;;;;;;;;5.20;99.90;;;;;;2615506;47;20033;-71
2023/12/05 11:23:02;;;;;;;;;;;5.20;99.90;;;;;;2616774;39;20374;-71
2023/12/05 11:25:42;;;;;;;;;;;5.20;99.90;;;;;;2616460;50;19953;-72
2023/12/05 11:28:19;;;;;;;;;;;5.20;99.90;;;;;;2616471;54;19966;-72
2023/12/05 11:30:58;;;;;;;;;;;5.20;99.90;;;;;;2616662;47;19939;-71
2023/12/05 11:33:53;;;;;;;;;;;5.30;99.90;;;;;;2615466;50;19970;-70
2023/12/05 11:36:28;;;;;;;;;;;5.30;99.90;;;;;;2616336;54;19946;-72
2023/12/05 11:38:59;;;;;;;;;;;5.30;99.90;;;;;;2616477;47;19958;-74
2023/12/05 11:41:29;;;;;;;;;;;5.40;99.90;;;;;;2615945;54;20002;-72
2023/12/05 11:44:23;;;;;;;;;;;5.40;99.90;;;;;;2616427;54;20074;-69
2023/12/05 11:46:54;;;;;;;;;;;5.40;99.90;;;;;;2616665;47;19950;-71
2023/12/05 11:49:36;;;;;;;;;;;5.40;99.90;;;;;;2616188;47;19969;-71
2023/12/05 11:52:12;;;;;;;;;;;5.40;99.90;;;;;;2616085;47;19974;-71
2023/12/05 11:54:43;;;;;;;;;;;5.40;99.90;;;;;;2616614;47;19951;-70
2023/12/05 11:57:14;;;;;;;;;;;5.40;99.90;;;;;;2616123;54;19942;-70
2023/12/05 11:59:45;;;;;;;;;;;5.40;99.90;;;;;;2616332;54;20438;-71
2023/12/05 12:02:15;;;;;;;;;;;5.40;99.90;;;;;;2616407;39;20364;-71
2023/12/05 12:04:48;;;;;;;;;;;5.40;99.90;;;;;;2615464;54;19946;-70
2023/12/05 12:07:17;;;;;;;;;;;5.50;99.90;;;;;;2616071;54;19934;-76
2023/12/05 12:09:47;;;;;;;;;;;5.50;99.90;;;;;;2615408;54;19950;-71
2023/12/05 12:12:16;;;;;;;;;;;5.50;99.90;;;;;;2615739;54;20021;-72
2023/12/05 12:14:46;;;;;;;;;;;5.50;99.90;;;;;;2616854;46;19953;-71
2023/12/05 12:17:16;;;;;;;;;;;5.50;99.90;;;;;;2617566;50;19979;-71
2023/12/05 12:19:48;;;;;;;;;;;5.50;99.90;;;;;;2615963;54;19954;-70
2023/12/05 12:22:18;;;;;;;;;;;5.50;99.90;;;;;;2616410;54;19953;-71
2023/12/05 12:24:47;;;;;;;;;;;5.50;99.90;;;;;;2616910;54;19977;-71
2023/12/05 12:27:18;;;;;;;;;;;5.60;99.90;;;;;;2616935;54;19946;-73
2023/12/05 12:29:57;;;;;;;;;;;5.60;99.90;;;;;;2617102;54;19938;-72
2023/12/05 12:32:27;;;;;;;;;;;5.60;99.90;;;;;;2616898;54;19954;-70
2023/12/05 12:35:01;;;;;;;;;;;5.60;99.90;;;;;;2617845;54;19963;-71
2023/12/05 12:37:31;;;;;;;;;;;5.60;99.90;;;;;;2617819;54;19939;-70
2023/12/05 12:40:11;;;;;;;;;;;5.60;99.90;;;;;;2618782;54;19943;-70
2023/12/05 12:42:42;;;;;;;;;;;5.60;99.90;;;;;;2617003;54;19954;-70
2023/12/05 12:45:11;;;;;;;;;;;5.60;99.90;;;;;;2617831;54;19954;-71
2023/12/05 12:47:43;;;;;;;;;;;5.70;99.90;;;;;;2619026;39;20365;-71
2023/12/05 12:50:15;;;;;;;;;;;5.70;99.90;;;;;;2615142;54;19945;-71
2023/12/05 12:52:45;;;;;;;;;;;5.70;99.90;;;;;;2616968;54;19938;-71
2023/12/05 12:55:18;;;;;;;;;;;5.70;99.90;;;;;;2616563;47;19969;-71
2023/12/05 12:57:48;;;;;;;;;;;5.80;99.90;;;;;;2615777;54;19955;-71
2023/12/05 13:00:18;;;;;;;;;;;5.80;99.90;;;;;;2617184;50;19951;-71
2023/12/05 13:03:05;;;;;;;;;;;5.80;99.90;;;;;;2616681;47;19954;-71
2023/12/05 13:05:38;;;;;;;;;;;5.90;99.90;;;;;;2616399;54;19955;-71
2023/12/05 13:08:09;;;;;;;;;;;5.90;99.90;;;;;;2616893;47;19947;-71
2023/12/05 13:10:40;;;;;;;;;;;5.90;99.90;;;;;;2616449;54;20058;-70
2023/12/05 13:13:10;;;;;;;;;;;6.00;99.90;;;;;;2616834;54;19939;-70
2023/12/05 13:15:40;;;;;;;;;;;6.10;99.90;;;;;;2616663;54;19946;-70
2023/12/05 13:18:10;;;;;;;;;;;6.10;99.90;;;;;;2615648;54;19975;-70
2023/12/05 13:20:53;;;;;;;;;;;6.10;99.90;;;;;;2617090;54;20079;-71
2023/12/05 13:23:24;;;;;;;;;;;6.10;99.90;;;;;;2615541;39;20609;-71
2023/12/05 13:25:54;;;;;;;;;;;6.10;99.90;;;;;;2616149;54;19961;-70
2023/12/05 13:28:23;;;;;;;;;;;6.00;99.90;;;;;;2617100;54;19966;-71
2023/12/05 13:30:53;;;;;;;;;;;6.10;99.90;;;;;;2617585;39;20352;-70
2023/12/05 13:33:23;;;;;;;;;;;6.10;99.90;;;;;;2616995;54;20453;-71
2023/12/05 13:35:56;;;;;;;;;;;6.10;99.90;;;;;;2616906;54;20026;-73
2023/12/05 13:38:26;;;;;;;;;;;6.00;99.90;;;;;;2616374;47;19938;-70
2023/12/05 13:40:55;;;;;;;;;;;6.10;99.90;;;;;;2616806;47;19946;-70
2023/12/05 13:43:25;;;;;;;;;;;6.10;99.90;;;;;;2616771;54;20057;-71
2023/12/05 13:45:55;;;;;;;;;;;6.10;99.90;;;;;;2617325;54;20853;-71
2023/12/05 13:48:24;;;;;;;;;;;6.00;99.90;;;;;;2616951;47;20525;-70
2023/12/05 13:50:57;;;;;;;;;;;6.00;99.90;;;;;;2616989;54;19946;-69
2023/12/05 13:53:26;;;;;;;;;;;6.00;99.90;;;;;;2617160;49;20446;-70
2023/12/05 13:55:56;;;;;;;;;;;6.00;99.90;;;;;;2619340;47;19951;-71
2023/12/05 13:58:26;;;;;;;;;;;6.00;99.90;;;;;;2620480;47;20046;-71
2023/12/05 14:00:56;;;;;;;;;;;6.00;99.90;;;;;;2620730;54;19945;-70
2023/12/05 14:03:25;;;;;;;;;;;6.00;99.90;;;;;;2616746;47;19958;-70
2023/12/05 14:05:58;;;;;;;;;;;6.00;99.90;;;;;;2614249;54;19953;-70
2023/12/05 14:08:28;;;;;;;;;;;6.00;99.90;;;;;;2616639;54;19946;-70
2023/12/05 14:10:57;;;;;;;;;;;6.10;99.90;;;;;;2617568;39;20372;-70
2023/12/05 14:13:27;;;;;;;;;;;6.10;99.90;;;;;;2616523;47;19955;-74
2023/12/05 14:15:56;;;;;;;;;;;6.10;99.90;;;;;;2616388;47;19973;-70
2023/12/05 14:18:26;;;;;;;;;;;6.10;99.90;;;;;;2617663;39;20388;-69
2023/12/05 14:20:59;;;;;;;;;;;6.00;99.90;;;;;;2616292;54;19953;-69
2023/12/05 14:23:30;;;;;;;;;;;6.00;99.90;;;;;;2616842;54;20437;-70
2023/12/05 14:26:00;;;;;;;;;;;6.00;99.90;;;;;;2617338;47;20057;-69
2023/12/05 14:28:29;;;;;;;;;;;6.00;99.90;;;;;;2616589;54;19942;-69
2023/12/05 14:31:00;;;;;;;;;;;6.00;99.90;;;;;;2617274;54;19951;-69
2023/12/05 14:33:30;;;;;;;;;;;6.00;99.90;;;;;;2616417;47;19958;-69
2023/12/05 14:36:02;;;;;;;;;;;5.90;99.90;;;;;;2616493;47;19954;-70
2023/12/05 14:38:32;;;;;;;;;;;5.90;99.90;;;;;;2616455;47;19947;-70
2023/12/05 14:41:02;;;;;;;;;;;5.90;99.90;;;;;;2616677;54;19950;-69
2023/12/05 14:43:31;;;;;;;;;;;5.90;99.90;;;;;;2616966;54;19946;-70
2023/12/05 14:46:01;;;;;;;;;;;6.00;99.90;;;;;;2617271;54;20046;-69
2023/12/05 14:48:30;;;;;;;;;;;5.90;99.90;;;;;;2616738;54;19998;-69
2023/12/05 14:51:03;;;;;;;;;;;5.90;99.90;;;;;;2616432;54;19951;-70
2023/12/05 14:53:32;;;;;;;;;;;5.90;99.90;;;;;;2616712;54;19950;-69
2023/12/05 14:56:03;;;;;;;;;;;5.90;99.90;;;;;;2616961;49;19954;-70
2023/12/05 14:58:32;;;;;;;;;;;5.90;99.90;;;;;;2617694;39;20542;-69
2023/12/05 15:01:02;;;;;;;;;;;5.90;99.90;;;;;;2618075;54;19946;-70
2023/12/05 15:03:32;;;;;;;;;;;5.90;99.90;;;;;;2615090;54;19951;-70
2023/12/05 15:06:05;;;;;;;;;;;5.80;99.90;;;;;;2615151;47;19974;-70
2023/12/05 15:08:35;;;;;;;;;;;5.80;99.90;;;;;;2612822;47;19953;-70
2023/12/05 15:11:05;;;;;;;;;;;5.80;99.90;;;;;;2615225;54;19951;-70
2023/12/05 15:13:35;;;;;;;;;;;5.70;99.90;;;;;;2616845;54;19939;-69
2023/12/05 15:16:04;;;;;;;;;;;5.70;99.90;;;;;;2616525;39;20400;-70
2023/12/05 15:18:34;;;;;;;;;;;5.70;99.90;;;;;;2613448;54;20457;-70
2023/12/05 15:21:07;;;;;;;;;;;5.70;99.90;;;;;;2615596;54;19962;-70
2023/12/05 15:23:37;;;;;;;;;;;5.70;99.90;;;;;;2616208;54;20003;-69
2023/12/05 15:26:07;;;;;;;;;;;5.80;99.90;;;;;;2615684;54;19946;-69
2023/12/05 15:28:38;;;;;;;;;;;5.70;99.90;;;;;;2615434;54;19950;-69
2023/12/05 15:31:08;;;;;;;;;;;5.70;99.90;;;;;;2615723;54;19946;-69
2023/12/05 15:33:37;;;;;;;;;;;5.70;99.90;;;;;;2616091;54;19973;-69
2023/12/05 15:36:11;;;;;;;;;;;5.80;99.90;;;;;;2615126;54;19985;-70
2023/12/05 15:38:43;;;;;;;;;;;5.70;99.90;;;;;;2615504;54;19950;-71
2023/12/05 15:41:14;;;;;;;;;;;5.70;99.90;;;;;;2615557;54;19946;-70
2023/12/05 15:43:44;;;;;;;;;;;5.70;99.90;;;;;;2614383;54;19957;-72
2023/12/05 15:46:21;;;;;;;;;;;5.80;99.90;;;;;;2614151;54;19951;-71
2023/12/05 15:48:51;;;;;;;;;;;5.80;99.90;;;;;;2613459;54;19957;-71
2023/12/05 15:51:24;;;;;;;;;;;5.80;99.90;;;;;;2614909;54;19969;-71
2023/12/05 15:53:54;;;;;;;;;;;5.70;99.90;;;;;;2616335;39;20349;-71
2023/12/05 15:56:24;;;;;;;;;;;5.70;99.90;;;;;;2616526;47;19954;-71
2023/12/05 15:58:55;;;;;;;;;;;5.70;99.90;;;;;;2615061;39;20360;-71
2023/12/05 16:01:25;;;;;;;;;;;5.70;99.90;;;;;;2615640;47;20513;-71
2023/12/05 16:03:55;;;;;;;;;;;5.80;99.90;;;;;;2613863;54;19950;-70
2023/12/05 16:06:28;;;;;;;;;;;5.70;99.90;;;;;;2615645;54;20023;-70
2023/12/05 16:08:57;;;;;;;;;;;5.70;99.90;;;;;;2615630;53;19946;-70
2023/12/05 16:11:27;;;;;;;;;;;5.70;99.90;;;;;;2615542;39;20353;-71
2023/12/05 16:13:56;;;;;;;;;;;5.70;99.90;;;;;;2614986;54;20445;-71
2023/12/05 16:16:28;;;;;;;;;;;5.70;99.90;;;;;;2615543;53;19946;-71
2023/12/05 16:18:58;;;;;;;;;;;5.70;99.90;;;;;;2610059;54;19946;-69
2023/12/05 16:21:30;;;;;;;;;;;5.70;99.90;;;;;;2612341;54;19955;-70
2023/12/05 16:24:00;;;;;;;;;;;5.60;99.90;;;;;;2615780;47;19943;-71
2023/12/05 16:26:30;;;;;;;;;;;5.70;99.90;;;;;;2616823;54;19965;-71
2023/12/05 16:29:00;;;;;;;;;;;5.60;99.90;;;;;;2614208;54;20021;-70
2023/12/05 16:31:29;;;;;;;;;;;5.60;99.90;;;;;;2614593;54;19942;-68
2023/12/05 16:33:59;;;;;;;;;;;5.60;99.90;;;;;;2615156;47;19950;-68
2023/12/05 16:36:32;;;;;;;;;;;5.60;99.90;;;;;;2614624;47;19954;-73
2023/12/05 16:39:03;;;;;;;;;;;5.60;99.90;;;;;;2614036;47;19947;-68
2023/12/05 16:41:33;;;;;;;;;;;5.60;99.90;;;;;;2615122;54;19950;-70
2023/12/05 16:44:03;;;;;;;;;;;5.60;99.90;;;;;;2614634;47;19939;-69
2023/12/05 16:46:33;;;;;;;;;;;5.60;99.90;;;;;;2614165;47;19953;-69
2023/12/05 16:49:04;;;;;;;;;;;5.60;99.90;;;;;;2613847;47;19954;-69
2023/12/05 16:51:36;;;;;;;;;;;5.50;99.90;;;;;;2614623;39;20333;-70
2023/12/05 16:54:06;;;;;;;;;;;5.50;99.90;;;;;;2614597;47;20568;-69
2023/12/05 16:56:36;;;;;;;;;;;5.50;99.90;;;;;;2614474;47;19971;-69
2023/12/05 17:01:34;;;;;;;;;;;5.50;99.90;;;;;;2615320;47;20014;-70
2023/12/05 17:04:04;;;;;;;;;;;5.50;99.90;;;;;;2614347;54;19947;-70
2023/12/05 17:06:36;;;;;;;;;;;5.50;99.90;;;;;;2615494;39;20665;-73
2023/12/05 17:09:06;;;;;;;;;;;5.50;99.90;;;;;;2600044;47;20041;-71
2023/12/05 17:11:36;;;;;;;;;;;5.00;99.90;;;;;;2597095;50;19951;-70
2023/12/05 17:14:06;;;;;;;;;;;5.40;99.90;;;;;;2599093;54;19996;-70
2023/12/05 17:16:35;;;;;;;;;;;5.40;99.90;;;;;;2598806;39;20670;-70
2023/12/05 17:19:05;;;;;;;;;;;5.40;99.90;;;;;;2596073;47;19962;-70
2023/12/05 17:21:38;;;;;;;;;;;5.40;99.90;;;;;;2597449;54;20057;-70
2023/12/05 17:24:08;;;;;;;;;;;5.40;99.90;;;;;;2598241;54;19969;-73
2023/12/05 17:26:37;;;;;;;;;;;5.50;99.90;;;;;;2598306;54;20101;-71